NKS876 MKJP-KFLL
Flight info
| Callsign | NKS876 |
|---|---|
| Flight time | N/A |
| Altitude | 34000 |
| Route | OTUNU UL417 BORDO OLAHS3 |
| Aircraft | A21N/M-SDE2E3FGHIRWXY/LB1 |
Departure
| Time | 2026-05-05 00:20 |
|---|---|
| Airport | Norman Manley International Airport (MKJP) |
Arrival
| Time | N/A |
|---|---|
| Airport | Fort Lauderdale Hollywood International Airport (KFLL) |
| Time | Latitude | Longitude | Altitude | Speed | Heading |
|---|---|---|---|---|---|
| 2026-05-05 00:07 | 17.93567 | -76.77978 | 19 ft | 0 kts | 355° |
| 2026-05-05 00:12 | 17.93564 | -76.77978 | -8 ft | 2 kts | 355° |
| 2026-05-05 00:12 | 17.93545 | -76.77976 | 19 ft | 3 kts | 355° |
| 2026-05-05 00:12 | 17.93525 | -76.77974 | 19 ft | 3 kts | 355° |
| 2026-05-05 00:13 | 17.93507 | -76.77972 | 22 ft | 3 kts | 341° |
| 2026-05-05 00:13 | 17.93491 | -76.77963 | 23 ft | 3 kts | 305° |
| 2026-05-05 00:13 | 17.93486 | -76.77948 | 21 ft | 3 kts | 254° |
| 2026-05-05 00:13 | 17.93493 | -76.77935 | 23 ft | 2 kts | 206° |
| 2026-05-05 00:14 | 17.93504 | -76.77931 | 21 ft | 3 kts | 201° |
| 2026-05-05 00:14 | 17.93519 | -76.77924 | 19 ft | 1 kts | 201° |
| 2026-05-05 00:14 | 17.93521 | -76.77924 | 19 ft | 0 kts | 201° |
| 2026-05-05 00:16 | 17.93518 | -76.77925 | 19 ft | 3 kts | 202° |
| 2026-05-05 00:16 | 17.93461 | -76.77951 | 20 ft | 11 kts | 208° |
| 2026-05-05 00:16 | 17.93449 | -76.78028 | 19 ft | 13 kts | 291° |
| 2026-05-05 00:16 | 17.93485 | -76.78124 | 20 ft | 15 kts | 291° |
| 2026-05-05 00:17 | 17.93525 | -76.78231 | 20 ft | 17 kts | 292° |
| 2026-05-05 00:17 | 17.93571 | -76.78347 | 19 ft | 18 kts | 292° |
| 2026-05-05 00:17 | 17.93620 | -76.78472 | 21 ft | 19 kts | 292° |
| 2026-05-05 00:17 | 17.93672 | -76.78605 | 19 ft | 20 kts | 292° |
| 2026-05-05 00:18 | 17.93726 | -76.78748 | 19 ft | 22 kts | 291° |
| 2026-05-05 00:18 | 17.93783 | -76.78899 | 19 ft | 23 kts | 292° |
| 2026-05-05 00:18 | 17.93865 | -76.79109 | 19 ft | 46 kts | 292° |
| 2026-05-05 00:18 | 17.93981 | -76.79414 | 19 ft | 35 kts | 294° |
| 2026-05-05 00:19 | 17.94057 | -76.79606 | 20 ft | 23 kts | 291° |
| 2026-05-05 00:19 | 17.94092 | -76.79718 | 18 ft | 14 kts | 279° |
| 2026-05-05 00:19 | 17.94107 | -76.79825 | 20 ft | 17 kts | 273° |
| 2026-05-05 00:19 | 17.94051 | -76.79912 | 18 ft | 12 kts | 187° |
| 2026-05-05 00:20 | 17.93965 | -76.79791 | 18 ft | 48 kts | 111° |
| 2026-05-05 00:20 | 17.93742 | -76.79212 | 20 ft | 119 kts | 112° |
| 2026-05-05 00:20 | 17.93377 | -76.78253 | 177 ft | 151 kts | 111° |
| 2026-05-05 00:20 | 17.92984 | -76.77250 | 790 ft | 149 kts | 113° |
| 2026-05-05 00:21 | 17.92559 | -76.76242 | 1252 ft | 157 kts | 112° |
| 2026-05-05 00:21 | 17.92054 | -76.75137 | 1569 ft | 180 kts | 123° |
| 2026-05-05 00:21 | 17.91000 | -76.74340 | 1973 ft | 203 kts | 160° |
| 2026-05-05 00:21 | 17.89485 | -76.74235 | 2299 ft | 236 kts | 183° |
| 2026-05-05 00:22 | 17.87825 | -76.74766 | 2750 ft | 263 kts | 203° |
| 2026-05-05 00:22 | 17.86205 | -76.75726 | 3505 ft | 271 kts | 207° |
| 2026-05-05 00:22 | 17.84569 | -76.76739 | 4332 ft | 275 kts | 207° |
| 2026-05-05 00:22 | 17.83054 | -76.77996 | 5137 ft | 283 kts | 227° |
| 2026-05-05 00:23 | 17.82109 | -76.79827 | 5897 ft | 292 kts | 255° |
| 2026-05-05 00:23 | 17.82042 | -76.81948 | 6667 ft | 294 kts | 283° |
| 2026-05-05 00:23 | 17.82719 | -76.83973 | 7436 ft | 295 kts | 295° |
| 2026-05-05 00:23 | 17.83557 | -76.85945 | 8191 ft | 297 kts | 295° |
| 2026-05-05 00:24 | 17.84478 | -76.87908 | 8850 ft | 301 kts | 304° |
| 2026-05-05 00:24 | 17.85911 | -76.89488 | 9539 ft | 300 kts | 329° |
| 2026-05-05 00:24 | 17.87830 | -76.90305 | 10117 ft | 302 kts | 352° |
| 2026-05-05 00:24 | 17.89971 | -76.90404 | 10436 ft | 316 kts | 4° |
| 2026-05-05 00:25 | 17.92228 | -76.90261 | 10685 ft | 334 kts | 5° |
| 2026-05-05 00:25 | 17.94612 | -76.90122 | 10913 ft | 352 kts | 4° |
| 2026-05-05 00:25 | 17.97118 | -76.90014 | 11128 ft | 369 kts | 3° |
| 2026-05-05 00:25 | 17.99743 | -76.89928 | 11353 ft | 385 kts | 2° |
| 2026-05-05 00:26 | 18.02476 | -76.89852 | 11561 ft | 400 kts | 2° |
| 2026-05-05 00:26 | 18.05306 | -76.89781 | 11774 ft | 413 kts | 2° |
| 2026-05-05 00:26 | 18.08203 | -76.89708 | 12144 ft | 419 kts | 1° |
| 2026-05-05 00:26 | 18.11132 | -76.89636 | 12610 ft | 422 kts | 1° |
| 2026-05-05 00:27 | 18.14079 | -76.89563 | 13129 ft | 425 kts | 1° |
| 2026-05-05 00:27 | 18.17045 | -76.89491 | 13633 ft | 429 kts | 1° |
| 2026-05-05 00:27 | 18.20043 | -76.89425 | 14094 ft | 432 kts | 1° |
| 2026-05-05 00:27 | 18.23055 | -76.89355 | 14544 ft | 435 kts | 1° |
| 2026-05-05 00:28 | 18.26088 | -76.89281 | 15060 ft | 438 kts | 0° |
| 2026-05-05 00:28 | 18.29145 | -76.89202 | 15594 ft | 440 kts | 0° |
| 2026-05-05 00:28 | 18.32216 | -76.89122 | 16125 ft | 443 kts | 360° |
| 2026-05-05 00:28 | 18.35264 | -76.89043 | 16598 ft | 445 kts | 0° |
| 2026-05-05 00:29 | 18.38410 | -76.88964 | 17070 ft | 448 kts | 0° |
| 2026-05-05 00:29 | 18.41497 | -76.88941 | 17519 ft | 450 kts | 356° |
| 2026-05-05 00:29 | 18.44647 | -76.89361 | 17970 ft | 451 kts | 346° |
| 2026-05-05 00:29 | 18.47700 | -76.90144 | 18398 ft | 453 kts | 344° |
| 2026-05-05 00:30 | 18.50715 | -76.90977 | 18777 ft | 455 kts | 343° |
| 2026-05-05 00:30 | 18.53783 | -76.91821 | 19167 ft | 457 kts | 344° |
| 2026-05-05 00:30 | 18.56872 | -76.92657 | 19579 ft | 459 kts | 344° |
| 2026-05-05 00:30 | 18.59976 | -76.93494 | 19987 ft | 461 kts | 344° |
| 2026-05-05 00:31 | 18.63088 | -76.94331 | 20376 ft | 463 kts | 344° |
| 2026-05-05 00:31 | 18.66217 | -76.95173 | 20774 ft | 465 kts | 344° |
| 2026-05-05 00:31 | 18.69364 | -76.96019 | 21287 ft | 467 kts | 343° |
| 2026-05-05 00:31 | 18.72510 | -76.96867 | 21872 ft | 468 kts | 343° |
| 2026-05-05 00:32 | 18.75670 | -76.97722 | 22310 ft | 470 kts | 343° |
| 2026-05-05 00:32 | 18.78844 | -76.98578 | 22758 ft | 471 kts | 343° |
| 2026-05-05 00:32 | 18.82030 | -76.99439 | 23146 ft | 474 kts | 344° |
| 2026-05-05 00:32 | 18.85230 | -77.00304 | 23518 ft | 476 kts | 344° |
| 2026-05-05 00:33 | 18.88439 | -77.01171 | 23821 ft | 478 kts | 344° |
| 2026-05-05 00:33 | 18.91666 | -77.02042 | 24058 ft | 480 kts | 343° |
| 2026-05-05 00:33 | 18.94911 | -77.02920 | 24302 ft | 482 kts | 343° |
| 2026-05-05 00:33 | 18.98167 | -77.03799 | 24528 ft | 484 kts | 343° |
| 2026-05-05 00:34 | 19.01431 | -77.04681 | 24834 ft | 484 kts | 343° |
| 2026-05-05 00:34 | 19.04696 | -77.05567 | 25143 ft | 485 kts | 343° |
| 2026-05-05 00:34 | 19.07961 | -77.06451 | 25481 ft | 484 kts | 343° |
| 2026-05-05 00:34 | 19.11222 | -77.07333 | 25820 ft | 483 kts | 343° |
| 2026-05-05 00:35 | 19.14482 | -77.08215 | 26160 ft | 483 kts | 343° |
| 2026-05-05 00:35 | 19.17731 | -77.09099 | 26499 ft | 482 kts | 343° |
| 2026-05-05 00:35 | 19.20982 | -77.09981 | 26857 ft | 482 kts | 343° |
| 2026-05-05 00:35 | 19.24227 | -77.10860 | 27213 ft | 481 kts | 342° |
| 2026-05-05 00:36 | 19.27422 | -77.11729 | 27564 ft | 480 kts | 342° |
| 2026-05-05 00:36 | 19.30657 | -77.12608 | 27909 ft | 480 kts | 342° |
| 2026-05-05 00:36 | 19.33888 | -77.13485 | 28255 ft | 479 kts | 342° |
| 2026-05-05 00:36 | 19.37116 | -77.14361 | 28622 ft | 478 kts | 342° |
| 2026-05-05 00:37 | 19.40339 | -77.15237 | 28962 ft | 478 kts | 342° |
| 2026-05-05 00:37 | 19.43557 | -77.16114 | 29303 ft | 477 kts | 341° |
| 2026-05-05 00:37 | 19.46770 | -77.16991 | 29650 ft | 477 kts | 341° |
| 2026-05-05 00:37 | 19.49981 | -77.17865 | 29980 ft | 476 kts | 341° |
| 2026-05-05 00:38 | 19.53189 | -77.18738 | 30286 ft | 475 kts | 341° |
| 2026-05-05 00:38 | 19.56387 | -77.19609 | 30587 ft | 474 kts | 341° |
| 2026-05-05 00:38 | 19.59580 | -77.20479 | 30872 ft | 473 kts | 341° |
| 2026-05-05 00:38 | 19.62764 | -77.21345 | 31169 ft | 472 kts | 341° |
| 2026-05-05 00:39 | 19.65935 | -77.22209 | 31462 ft | 470 kts | 341° |
| 2026-05-05 00:39 | 19.69100 | -77.23072 | 31768 ft | 469 kts | 340° |
| 2026-05-05 00:39 | 19.72250 | -77.23933 | 32087 ft | 466 kts | 340° |
| 2026-05-05 00:39 | 19.75385 | -77.24790 | 32383 ft | 465 kts | 340° |
| 2026-05-05 00:40 | 19.78507 | -77.25643 | 32648 ft | 464 kts | 340° |
| 2026-05-05 00:40 | 19.81634 | -77.26495 | 32909 ft | 463 kts | 340° |
| 2026-05-05 00:40 | 19.84748 | -77.27350 | 33165 ft | 462 kts | 340° |
| 2026-05-05 00:40 | 19.87856 | -77.28203 | 33407 ft | 461 kts | 340° |
| 2026-05-05 00:41 | 19.90960 | -77.29052 | 33656 ft | 460 kts | 340° |
| 2026-05-05 00:41 | 19.94058 | -77.29901 | 33888 ft | 459 kts | 340° |
| 2026-05-05 00:41 | 19.97150 | -77.30749 | 34032 ft | 460 kts | 340° |
| 2026-05-05 00:42 | 20.03335 | -77.32445 | 34049 ft | 458 kts | 339° |
| 2026-05-05 00:42 | 20.08464 | -77.33858 | 34022 ft | 458 kts | 339° |
| 2026-05-05 00:43 | 20.14633 | -77.35552 | 34022 ft | 458 kts | 339° |
| 2026-05-05 00:43 | 20.20809 | -77.37248 | 34012 ft | 458 kts | 339° |
| 2026-05-05 00:44 | 20.26829 | -77.39316 | 34010 ft | 451 kts | 330° |
| 2026-05-05 00:44 | 20.32561 | -77.42013 | 34016 ft | 450 kts | 330° |
| 2026-05-05 00:45 | 20.38313 | -77.44675 | 34024 ft | 451 kts | 330° |